createdAt,value
2022-12-03T00:01:11.040Z,14.50
2022-12-03T00:06:12.943Z,14.30
2022-12-03T00:11:14.742Z,13.70
2022-12-03T00:16:16.701Z,12.40
2022-12-03T00:21:18.642Z,14.40
2022-12-03T00:26:20.493Z,13.40
2022-12-03T00:31:24.508Z,11.90
2022-12-03T00:36:26.477Z,14.20
2022-12-03T00:41:29.147Z,13.40
2022-12-03T00:46:31.095Z,13.50
2022-12-03T00:51:33.061Z,14.50
2022-12-03T00:56:34.905Z,14.50
2022-12-03T01:01:36.847Z,15.70
2022-12-03T01:06:39.040Z,14.50
2022-12-03T01:11:41.530Z,15.10
2022-12-03T01:16:44.119Z,15.10
2022-12-03T01:21:48.961Z,11.90
2022-12-03T01:26:50.760Z,12.60
2022-12-03T01:32:11.455Z,14.50
2022-12-03T01:37:14.038Z,13.30
2022-12-03T01:42:18.405Z,13.30
2022-12-03T01:47:27.112Z,15.70
2022-12-03T01:52:32.856Z,15.00
2022-12-03T01:57:37.713Z,15.40
2022-12-03T02:02:39.489Z,13.60
2022-12-03T02:07:42.464Z,13.20
2022-12-03T02:12:51.045Z,15.30
2022-12-03T02:17:53.523Z,14.80
2022-12-03T02:23:11.399Z,13.30
2022-12-03T02:28:13.358Z,13.00
2022-12-03T02:33:15.161Z,15.90
2022-12-03T02:38:21.096Z,14.70
2022-12-03T02:43:23.900Z,14.50
2022-12-03T02:48:29.963Z,15.30
2022-12-03T02:53:38.312Z,15.90
2022-12-03T02:58:41.976Z,13.80
2022-12-03T03:03:45.904Z,12.20
2022-12-03T03:08:48.793Z,14.80
2022-12-03T03:13:50.713Z,13.70
2022-12-03T03:18:52.744Z,13.70
2022-12-03T03:23:54.600Z,14.70
2022-12-03T03:28:57.593Z,14.60
2022-12-03T03:33:59.613Z,14.50
2022-12-03T03:39:01.936Z,14.40
2022-12-03T03:44:07.336Z,15.60
2022-12-03T03:49:10.604Z,14.90
2022-12-03T03:54:13.028Z,14.80
2022-12-03T03:59:15.518Z,14.60
2022-12-03T04:04:20.927Z,13.10
2022-12-03T04:09:22.801Z,14.00
2022-12-03T04:14:24.825Z,14.80
2022-12-03T04:19:26.663Z,15.30
2022-12-03T04:24:28.555Z,15.20
2022-12-03T04:29:30.408Z,13.20
2022-12-03T04:34:51.745Z,16.20
2022-12-03T04:39:54.354Z,13.80
2022-12-03T04:44:58.496Z,15.90
2022-12-03T04:50:00.286Z,14.90
2022-12-03T04:55:02.140Z,14.00
2022-12-03T05:00:05.644Z,12.60
2022-12-03T05:05:07.949Z,13.60
2022-12-03T05:10:10.946Z,13.60
2022-12-03T05:15:12.719Z,15.20
2022-12-03T05:20:33.491Z,15.00
2022-12-03T05:25:35.360Z,13.20
2022-12-03T05:30:37.312Z,13.50
2022-12-03T05:35:39.265Z,15.20
2022-12-03T05:40:41.279Z,15.30
2022-12-03T05:45:44.395Z,13.30
2022-12-03T05:50:47.036Z,13.90
2022-12-03T05:55:48.911Z,14.40
2022-12-03T06:00:50.809Z,14.70
2022-12-03T06:05:52.673Z,18.10
2022-12-03T06:10:54.482Z,18.80
2022-12-03T06:15:56.338Z,17.20
2022-12-03T06:20:58.194Z,18.90
2022-12-03T06:26:00.024Z,18.00
2022-12-03T06:31:01.868Z,18.10
2022-12-03T06:36:03.883Z,16.80
2022-12-03T06:41:05.848Z,16.20
2022-12-03T06:46:07.680Z,17.00
2022-12-03T06:51:09.615Z,18.20
2022-12-03T06:56:11.466Z,18.60
2022-12-03T07:01:13.313Z,19.50
2022-12-03T07:06:15.445Z,18.40
2022-12-03T07:11:32.520Z,17.70
2022-12-03T07:16:35.833Z,18.70
2022-12-03T07:21:38.332Z,19.70
2022-12-03T07:26:40.327Z,18.10
2022-12-03T07:31:42.189Z,19.80
2022-12-03T07:36:44.136Z,18.40
2022-12-03T07:41:46.008Z,19.90
2022-12-03T07:46:48.096Z,22.00
2022-12-03T07:51:54.475Z,18.60
2022-12-03T07:57:01.194Z,21.70
2022-12-03T08:02:03.887Z,24.30
2022-12-03T08:07:06.315Z,20.80
2022-12-03T08:12:17.082Z,20.40
2022-12-03T08:17:19.913Z,19.50
2022-12-03T08:22:22.450Z,20.80
2022-12-03T08:27:24.293Z,19.40
2022-12-03T08:32:26.343Z,22.00
2022-12-03T08:37:29.856Z,20.00
2022-12-03T08:42:42.832Z,23.80
2022-12-03T08:47:44.761Z,22.20
2022-12-03T08:52:46.605Z,22.50
2022-12-03T08:57:48.526Z,23.60
2022-12-03T09:02:59.572Z,20.30
2022-12-03T09:08:01.498Z,22.60
2022-12-03T09:13:03.444Z,20.80
2022-12-03T09:18:07.633Z,17.30
2022-12-03T09:23:09.472Z,21.00
2022-12-03T09:28:11.292Z,19.30
2022-12-03T09:33:14.174Z,19.10
2022-12-03T09:38:15.987Z,19.80
2022-12-03T09:43:18.645Z,20.70
2022-12-03T09:48:21.637Z,18.40
2022-12-03T09:53:26.799Z,18.00
2022-12-03T09:58:34.501Z,23.90
2022-12-03T10:03:41.183Z,17.70
2022-12-03T10:08:43.218Z,21.60
2022-12-03T10:13:46.250Z,21.10
2022-12-03T10:18:54.495Z,19.30
2022-12-03T10:24:25.842Z,19.60
2022-12-03T10:29:33.955Z,18.80
2022-12-03T10:34:38.998Z,19.00
2022-12-03T10:39:56.262Z,20.30
2022-12-03T10:45:37.075Z,22.30
2022-12-03T10:50:50.666Z,21.00
2022-12-03T10:56:04.732Z,21.10
2022-12-03T11:01:16.073Z,20.30
2022-12-03T11:06:20.568Z,22.50
2022-12-03T11:11:28.077Z,21.70
2022-12-03T11:16:42.155Z,26.90
2022-12-03T11:22:05.980Z,21.80
2022-12-03T11:27:10.840Z,22.00
2022-12-03T11:32:39.478Z,22.60
2022-12-03T11:37:41.378Z,22.80
2022-12-03T11:42:45.019Z,22.60
2022-12-03T11:48:13.853Z,21.50
2022-12-03T11:53:24.800Z,21.90
2022-12-03T11:58:29.860Z,23.00
2022-12-03T12:03:34.398Z,22.60
2022-12-03T12:08:42.163Z,22.00
2022-12-03T12:13:43.933Z,22.90
2022-12-03T12:18:55.020Z,23.20
2022-12-03T12:23:57.264Z,25.30
2022-12-03T12:28:59.042Z,26.10
2022-12-03T12:34:01.668Z,24.40
2022-12-03T12:39:10.719Z,23.30
2022-12-03T12:44:15.360Z,25.70
2022-12-03T12:49:21.598Z,24.20
2022-12-03T12:54:23.881Z,23.60
2022-12-03T12:59:26.065Z,22.70
2022-12-03T13:04:30.721Z,25.80
2022-12-03T13:09:33.109Z,23.30
2022-12-03T13:14:37.254Z,27.60
2022-12-03T13:19:48.311Z,25.90
2022-12-03T13:25:57.825Z,28.50
2022-12-03T13:30:54.300Z,28.70
2022-12-03T13:35:56.628Z,25.90
2022-12-03T13:41:01.574Z,22.50
2022-12-03T13:46:03.496Z,27.90
2022-12-03T13:51:26.315Z,23.90
2022-12-03T13:56:30.918Z,26.90
2022-12-03T14:01:33.022Z,26.50
2022-12-03T14:06:34.879Z,25.70
2022-12-03T14:11:55.596Z,22.60
2022-12-03T14:17:00.097Z,25.20
2022-12-03T14:22:03.094Z,23.50
2022-12-03T14:27:04.927Z,24.90
2022-12-03T14:32:06.826Z,22.40
2022-12-03T14:37:08.718Z,21.10
2022-12-03T14:42:13.403Z,22.80
2022-12-03T14:47:18.570Z,25.50
2022-12-03T14:52:20.526Z,23.00
2022-12-03T14:57:22.349Z,23.30
2022-12-03T15:02:24.334Z,23.40
2022-12-03T15:07:26.388Z,24.40
2022-12-03T15:12:28.295Z,26.70
2022-12-03T15:17:32.156Z,26.60
2022-12-03T15:22:34.267Z,24.50
2022-12-03T15:27:36.101Z,22.10
2022-12-03T15:32:37.974Z,24.20
2022-12-03T15:37:40.564Z,23.50
2022-12-03T15:42:43.787Z,22.50
2022-12-03T15:47:46.069Z,21.10
2022-12-03T15:52:47.999Z,21.30
2022-12-03T15:57:50.481Z,26.30
2022-12-03T16:02:53.046Z,25.70
2022-12-03T16:07:55.347Z,24.30
2022-12-03T16:12:57.231Z,23.20
2022-12-03T16:17:59.082Z,26.10
2022-12-03T16:23:00.870Z,23.80
2022-12-03T16:28:02.754Z,25.20
2022-12-03T16:33:04.904Z,26.90
2022-12-03T16:38:06.747Z,26.70
2022-12-03T16:43:10.651Z,28.00
2022-12-03T16:48:12.450Z,26.00
2022-12-03T16:53:16.407Z,26.70
2022-12-03T16:58:21.573Z,29.10
2022-12-03T17:03:24.313Z,25.30
2022-12-03T17:08:28.553Z,29.20
2022-12-03T17:13:30.345Z,27.10
2022-12-03T17:18:32.163Z,26.90
2022-12-03T17:23:33.925Z,23.80
2022-12-03T17:28:35.796Z,22.00
2022-12-03T17:33:37.685Z,23.20
2022-12-03T17:38:41.040Z,25.20
2022-12-03T17:43:42.854Z,21.50
2022-12-03T17:48:44.754Z,24.30
2022-12-03T17:53:46.823Z,22.40
2022-12-03T17:58:48.631Z,22.50
2022-12-03T18:03:50.446Z,22.80
2022-12-03T18:08:52.393Z,24.00
2022-12-03T18:13:54.212Z,23.70
2022-12-03T18:18:57.610Z,21.60
2022-12-03T18:24:02.389Z,21.30
2022-12-03T18:29:04.267Z,20.90
2022-12-03T18:34:06.084Z,20.30
2022-12-03T18:39:18.332Z,22.70
2022-12-03T18:44:20.699Z,24.30
2022-12-03T18:49:22.561Z,22.20
2022-12-03T18:54:24.394Z,23.20
2022-12-03T18:59:26.209Z,21.70
2022-12-03T19:04:28.190Z,22.90
2022-12-03T19:09:30.056Z,21.80
2022-12-03T19:14:33.221Z,23.40
2022-12-03T19:19:36.318Z,26.00
2022-12-03T19:24:38.171Z,22.60
2022-12-03T19:29:40.073Z,25.00
2022-12-03T19:34:41.882Z,24.50
2022-12-03T19:39:43.726Z,25.70
2022-12-03T19:44:45.497Z,27.10
2022-12-03T19:49:47.277Z,21.80
2022-12-03T19:54:49.233Z,24.60
2022-12-03T19:59:51.031Z,24.10
2022-12-03T20:04:52.840Z,23.10
2022-12-03T20:09:54.866Z,24.50
2022-12-03T20:14:57.006Z,23.50
2022-12-03T20:19:58.854Z,26.40
2022-12-03T20:25:00.745Z,26.40
2022-12-03T20:30:02.686Z,26.70
2022-12-03T20:35:04.945Z,24.00
2022-12-03T20:40:07.632Z,25.00
2022-12-03T20:45:10.315Z,24.50
2022-12-03T20:50:12.301Z,20.10
2022-12-03T20:55:14.210Z,20.90
2022-12-03T21:00:16.942Z,25.70
2022-12-03T21:05:18.886Z,26.60
2022-12-03T21:10:36.052Z,28.10
2022-12-03T21:15:37.884Z,27.50
2022-12-03T21:20:44.933Z,25.80
2022-12-03T21:25:46.767Z,26.30
2022-12-03T21:30:48.694Z,24.70
2022-12-03T21:35:50.711Z,21.50
2022-12-03T21:40:52.946Z,24.60
2022-12-03T21:45:55.679Z,24.50
2022-12-03T21:51:17.295Z,27.30
2022-12-03T21:56:19.591Z,28.90
2022-12-03T22:01:24.087Z,27.60
2022-12-03T22:06:26.417Z,27.00
2022-12-03T22:11:28.263Z,26.40
2022-12-03T22:16:30.502Z,25.80
2022-12-03T22:21:32.561Z,24.10
2022-12-03T22:26:35.326Z,22.20
2022-12-03T22:31:38.458Z,22.10
2022-12-03T22:36:40.392Z,23.70
2022-12-03T22:41:42.242Z,23.40
2022-12-03T22:46:44.194Z,23.70
2022-12-03T22:51:47.471Z,23.10
2022-12-03T22:56:49.367Z,23.00
2022-12-03T23:01:51.188Z,22.20
2022-12-03T23:06:53.082Z,22.70
2022-12-03T23:11:55.202Z,23.20
2022-12-03T23:16:56.994Z,23.50
2022-12-03T23:21:58.823Z,25.70
2022-12-03T23:27:00.688Z,24.60
2022-12-03T23:32:02.584Z,23.40
2022-12-03T23:37:04.348Z,21.50
2022-12-03T23:42:06.165Z,23.30
2022-12-03T23:47:07.947Z,23.70
2022-12-03T23:52:09.811Z,24.30
2022-12-03T23:57:12.775Z,23.70
